• Join FlightAware (Why Join?)
  • Login
  • US Flag 
11:03AM EST


 

Airport Tracker/Info


-or-


 

Live Flight TrackerFlight Track Log ✈ D-AIGN ✈ 09-Jul-2013 ✈ OKBK / KWI - EDDF / FRA

Flight Track Log - Related Links

Times and Time Zones

All times are in EDT time to prevent confusion due to time zone crossing. See the D-AIGN flight status page for this flight to view local times or setup timezone preferences in your user account.

Time Position Orientation Groundspeed Altitude Reporting Facility
EDT Latitude Longitude Course Direction KTS MPH feet Rate Location/Type
05:48PM 29.2490 47.9810 339° North 118 136 2,200  Level FlightAware
05:48PM 29.2580 47.9770 339° North 112 129 2,900 1,800 Climbing FlightAware
05:49PM 29.2710 47.9710 338° Northwest 118 136 3,600 1,260 Climbing FlightAware
05:49PM 29.2880 47.9810 27° Northeast 160 184 4,100 780 Climbing FlightAware
05:49PM 29.3000 47.9940 43° Northeast 187 215 4,300 720 Climbing FlightAware
05:50PM 29.3270 48.0210 41° Northeast 230 265 4,800 840 Climbing FlightAware
05:50PM 29.3430 48.0350 37° Northeast 246 283 5,100 780 Climbing FlightAware
05:51PM 29.3600 48.0500 38° Northeast 265 305 5,300 1,020 Climbing FlightAware
05:51PM 29.3830 48.0700 37° Northeast 280 322 5,800 1,560 Climbing FlightAware
05:52PM 29.4200 48.1000 35° Northeast 291 335 6,800 1,620 Climbing FlightAware
05:52PM 29.4390 48.1140 33° Northeast 295 339 7,200 1,620 Climbing FlightAware
05:52PM 29.4650 48.1350 35° Northeast 297 342 7,900 1,800 Climbing FlightAware
05:53PM 29.4960 48.1580 33° Northeast 304 350 8,700 1,560 Climbing FlightAware
05:53PM 29.5340 48.1850 32° Northeast 310 357 9,500 1,740 Climbing FlightAware
05:54PM 29.5840 48.2200 31° Northeast 312 359 10,800 1,380 Climbing FlightAware
05:54PM 29.6250 48.2430 26° Northeast 341 392 11,100 480 Climbing FlightAware
05:55PM 29.6710 48.2320 348° North 362 417 11,300 1,320 Climbing FlightAware
05:56PM 29.7270 48.1820 322° Northwest 362 417 12,700 1,200 Climbing FlightAware
05:56PM 29.7580 48.1540 322° Northwest 362 417 12,700 1,680 Level FlightAware
05:57PM 29.8480 48.0750 323° Northwest 371 427 15,300 1,620 Climbing FlightAware
05:58PM 29.9000 48.0270 321° Northwest 373 429 15,700 1,500 Climbing FlightAware
05:59PM 29.9670 47.9680 323° Northwest 390 449 17,400 1,920 Climbing FlightAware
05:59PM 30.0300 47.9080 320° Northwest 401 461 18,400 1,140 Climbing FlightAware
06:00PM 30.0930 47.8230 311° West 414 476 19,300 960 Climbing FlightAware
06:01PM 30.1730 47.7160 311° West 415 478 20,400 1,380 Climbing FlightAware
06:02PM 30.2210 47.6530 311° West 421 484 21,600 1,440 Climbing FlightAware
06:03PM 30.3160 47.5250 311° West 434 499 23,000 720 Climbing FlightAware
06:04PM 30.3620 47.4610 310° West 436 502 23,100 1,080 Climbing FlightAware
06:05PM 30.4310 47.3700 311° West 453 521 24,600 1,320 Climbing FlightAware
06:05PM 30.5040 47.2700 310° West 456 525 25,300 420 Climbing FlightAware
06:06PM 30.5460 47.2130 311° West 456 525 25,300 1,440 Level FlightAware
06:07PM 30.6160 47.1200 311° West 474 545 27,300 1,380 Climbing FlightAware
06:07PM 30.6630 47.0550 310° West 474 545 27,300 1,080 Level FlightAware
06:08PM 30.7370 46.9560 311° West 486 559 28,800 1,620 Climbing FlightAware
06:09PM 30.8050 46.8630 310° West 490 564 29,700 1,260 Climbing FlightAware
06:10PM 30.8780 46.7630 310° West 493 567 30,700 1,380 Climbing FlightAware
06:10PM 30.9310 46.6900 310° West 491 565 31,600 1,260 Climbing FlightAware
06:11PM 30.9810 46.6210 310° West 490 564 32,300 1,080 Climbing FlightAware
06:12PM 31.0720 46.4970 311° West 493 567 33,400 1,260 Climbing FlightAware
06:12PM 31.1220 46.4270 310° West 488 562 34,300 1,320 Climbing FlightAware
06:13PM 31.1890 46.3360 311° West 486 559 35,200 1,200 Climbing FlightAware
06:14PM 31.2390 46.2680 311° West 484 557 35,900 1,080 Climbing FlightAware
06:14PM 31.3120 46.2040 323° Northwest 484 557 36,600 960 Climbing FlightAware
06:15PM 31.3490 46.1740 325° Northwest 484 557 36,900 720 Climbing FlightAware
06:16PM 31.5180 46.0340 325° Northwest 478 550 38,000 480 Climbing FlightAware
06:17PM 31.5820 45.9800 324° Northwest 478 550 38,000  Level FlightAware
06:18PM 31.6620 45.9140 325° Northwest 478 550 38,000  Level FlightAware
06:18PM 31.7470 45.8430 325° Northwest 477 549 38,000  Level FlightAware
06:19PM 31.8320 45.7720 325° Northwest 477 549 38,000  Level FlightAware
06:20PM 31.9030 45.7120 324° Northwest 477 549 38,000  Level FlightAware
06:21PM 31.9800 45.6470 324° Northwest 476 548 38,000  Level FlightAware
06:21PM 32.0470 45.5910 325° Northwest 474 545 38,000  Level FlightAware
06:22PM 32.1180 45.5310 324° Northwest 474 545 38,000  Level FlightAware
06:23PM 32.1980 45.4630 324° Northwest 474 545 38,000  Level FlightAware
06:23PM 32.2680 45.4040 325° Northwest 474 545 38,000  Level FlightAware
06:24PM 32.3400 45.3430 324° Northwest 476 548 38,000  Level FlightAware
06:25PM 32.4220 45.2730 324° Northwest 479 551 38,000  Level FlightAware
06:25PM 32.4970 45.2100 325° Northwest 480 552 38,000  Level FlightAware
06:26PM 32.5540 45.1600 324° Northwest 480 552 38,000  Level FlightAware
06:27PM 32.6390 45.0890 325° Northwest 481 554 38,000  Level FlightAware
06:27PM 32.7150 45.0380 331° Northwest 481 554 38,000  Level FlightAware
06:28PM 32.8040 44.9860 334° Northwest 479 551 38,000  Level FlightAware
06:29PM 32.8820 44.9380 333° Northwest 477 549 38,000  Level FlightAware
06:29PM 32.9660 44.8870 333° Northwest 475 547 38,000  Level FlightAware
06:30PM 33.0470 44.8380 333° Northwest 474 545 38,000  Level FlightAware
06:31PM 33.1330 44.7850 333° Northwest 474 545 38,000  Level FlightAware
06:32PM 33.2110 44.7390 334° Northwest 477 549 38,000  Level FlightAware
06:32PM 33.3040 44.7000 341° North 480 552 38,000  Level FlightAware
06:33PM 33.3900 44.6690 343° North 480 552 38,000  Level FlightAware
06:34PM 33.4820 44.6360 343° North 483 556 38,000  Level FlightAware
06:34PM 33.5680 44.5990 340° North 482 555 38,000  Level FlightAware
06:35PM 33.6420 44.5630 338° Northwest 483 556 38,000  Level FlightAware
06:36PM 33.7250 44.5230 338° Northwest 484 557 38,000  Level FlightAware
06:36PM 33.8130 44.4800 338° Northwest 486 559 38,000  Level FlightAware
06:37PM 33.9050 44.4340 337° Northwest 485 558 38,000  Level FlightAware
06:38PM 33.9880 44.3930 338° Northwest 483 556 38,000  Level FlightAware
06:38PM 34.0770 44.3490 338° Northwest 480 552 38,000  Level FlightAware
06:39PM 34.1630 44.3060 338° Northwest 478 550 38,000  Level FlightAware
06:40PM 34.2370 44.2690 338° Northwest 477 549 38,000  Level FlightAware
06:40PM 34.3180 44.2290 338° Northwest 478 550 38,000  Level FlightAware
06:41PM 34.4010 44.1870 337° Northwest 479 551 38,000  Level FlightAware
06:42PM 34.4870 44.1440 338° Northwest 479 551 38,000  Level FlightAware
06:42PM 34.5600 44.1070 337° Northwest 477 549 38,000  Level FlightAware
06:43PM 34.6480 44.0600 336° Northwest 475 547 38,000  Level FlightAware
06:44PM 34.7300 44.0180 337° Northwest 475 547 38,000  Level FlightAware
06:45PM 34.8160 43.9720 336° Northwest 475 547 38,000  Level FlightAware
06:45PM 34.9010 43.9280 337° Northwest 475 547 38,000  Level FlightAware
06:46PM 34.9830 43.8840 336° Northwest 473 544 38,000  Level FlightAware
06:47PM 35.0720 43.8370 337° Northwest 472 543 38,000  Level FlightAware
06:47PM 35.1400 43.8010 337° Northwest 472 543 38,000  Level FlightAware
06:48PM 35.2290 43.7540 337° Northwest 471 542 38,000  Level FlightAware
06:49PM 35.3080 43.7110 336° Northwest 470 541 38,000  Level FlightAware
06:49PM 35.3800 43.6730 337° Northwest 470 541 38,000  Level FlightAware
06:50PM 35.4640 43.6280 336° Northwest 468 539 38,000  Level FlightAware
06:51PM 35.5480 43.5840 337° Northwest 467 537 38,000  Level FlightAware
06:51PM 35.6270 43.5410 336° Northwest 466 536 38,000  Level FlightAware
06:52PM 35.7160 43.4930 336° Northwest 466 536 38,000  Level FlightAware
06:53PM 35.7950 43.4510 337° Northwest 466 536 38,000  Level FlightAware
06:53PM 35.8790 43.4060 337° Northwest 467 537 38,000  Level FlightAware
06:54PM 35.9350 43.3760 337° Northwest 467 537 38,000  Level FlightAware
06:55PM 36.0090 43.3350 336° Northwest 467 537 38,000  Level FlightAware
06:55PM 36.0880 43.2930 337° Northwest 466 536 38,000  Level FlightAware
06:56PM 36.1730 43.2460 336° Northwest 466 536 38,000  Level FlightAware
06:57PM 36.2330 43.2120 335° Northwest 466 536 38,000  Level FlightAware
06:57PM 36.3120 43.1690 336° Northwest 466 536 38,000  Level FlightAware
06:58PM 36.3940 43.1240 336° Northwest 466 536 38,000  Level FlightAware
06:59PM 36.4560 43.0890 336° Northwest 466 536 38,000  Level FlightAware
07:00PM 36.5360 43.0450 336° Northwest 466 536 38,000  Level FlightAware
07:00PM 36.5930 43.0130 336° Northwest 466 536 38,000  Level FlightAware
07:01PM 36.6740 42.9690 336° Northwest 466 536 38,000  Level FlightAware
07:02PM 36.7370 42.9330 335° Northwest 466 536 38,000  Level FlightAware
07:02PM 36.8140 42.8900 336° Northwest 466 536 38,000  Level FlightAware
07:03PM 36.8740 42.8570 336° Northwest 466 536 38,000  Level FlightAware
07:04PM 36.9380 42.8210 336° Northwest 466 536 38,000  Level FlightAware
07:04PM 37.0000 42.7870 336° Northwest 466 536 38,000  Level FlightAware
07:07PM 37.1650 42.5306 309° West  Level Estimated
07:08PM 37.2376 42.4171 309° West  Level Estimated
07:09PM 37.3101 42.3035 309° West  Level Estimated
07:10PM 37.3825 42.1895 309° West  Level Estimated
07:11PM 37.4548 42.0754 309° West  Level Estimated
07:12PM 37.5270 41.9611 309° West  Level Estimated
07:13PM 37.5991 41.8465 308° West  Level Estimated
07:14PM 37.6710 41.7317 308° West  Level Estimated
07:15PM 37.7429 41.6167 308° West  Level Estimated
07:16PM 37.8146 41.5014 308° West  Level Estimated
07:17PM 37.8862 41.3860 308° West  Level Estimated
07:18PM 37.9577 41.2703 308° West  Level Estimated
07:19PM 38.0291 41.1544 308° West  Level Estimated
07:20PM 38.1004 41.0382 308° West  Level Estimated
07:21PM 38.1716 40.9219 308° West  Level Estimated
07:22PM 38.2426 40.8053 308° West  Level Estimated
07:23PM 38.3136 40.6885 308° West  Level Estimated
07:24PM 38.3844 40.5714 308° West  Level Estimated
07:25PM 38.4551 40.4541 308° West  Level Estimated
07:26PM 38.5257 40.3366 308° West  Level Estimated
07:27PM 38.5962 40.2189 307° West  Level Estimated
07:28PM 38.6665 40.1009 307° West  Level Estimated
07:29PM 38.7368 39.9827 307° West  Level Estimated
07:30PM 38.8069 39.8643 307° West  Level Estimated
07:31PM 38.8769 39.7456 307° West  Level Estimated
07:32PM 38.9467 39.6267 307° West  Level Estimated
07:33PM 39.0165 39.5076 307° West  Level Estimated
07:34PM 39.0861 39.3882 307° West  Level Estimated
07:35PM 39.1556 39.2686 307° West  Level Estimated
07:36PM 39.2250 39.1488 307° West  Level Estimated
07:37PM 39.2943 39.0287 307° West  Level Estimated
07:38PM 39.3634 38.9084 307° West  Level Estimated
07:39PM 39.4324 38.7878 307° West  Level Estimated
07:40PM 39.5013 38.6670 306° West  Level Estimated
07:41PM 39.5701 38.5460 306° West  Level Estimated
07:42PM 39.6387 38.4247 306° West  Level Estimated
07:43PM 39.7072 38.3032 306° West  Level Estimated
07:44PM 39.7756 38.1814 306° West  Level Estimated
07:45PM 39.8439 38.0594 306° West  Level Estimated
07:46PM 39.9120 37.9372 306° West  Level Estimated
07:47PM 39.9800 37.8147 306° West  Level Estimated
07:48PM 40.0479 37.6920 306° West  Level Estimated
07:49PM 40.1156 37.5690 306° West  Level Estimated
07:50PM 40.1832 37.4458 306° West  Level Estimated
07:51PM 40.2507 37.3223 306° West  Level Estimated
07:52PM 40.3181 37.1986 306° West  Level Estimated
07:53PM 40.3853 37.0747 305° West  Level Estimated
07:54PM 40.4524 36.9505 305° West  Level Estimated
07:55PM 40.5193 36.8260 305° West  Level Estimated
07:56PM 40.5861 36.7013 305° West  Level Estimated
07:57PM 40.6528 36.5764 305° West  Level Estimated
07:58PM 40.7194 36.4512 305° West  Level Estimated
07:59PM 40.7858 36.3257 305° West  Level Estimated
08:00PM 40.8521 36.2000 305° West  Level Estimated
08:01PM 40.9182 36.0741 305° West  Level Estimated
08:02PM 40.9842 35.9479 305° West  Level Estimated
08:03PM 41.0501 35.8214 305° West  Level Estimated
08:04PM 41.1158 35.6947 305° West  Level Estimated
08:05PM 41.1814 35.5677 304° West  Level Estimated
08:06PM 41.2468 35.4405 304° West  Level Estimated
08:07PM 41.3122 35.3130 304° West  Level Estimated
08:08PM 41.3773 35.1853 304° West  Level Estimated
08:09PM 41.4424 35.0573 304° West  Level Estimated
08:10PM 41.5072 34.9291 304° West  Level Estimated
08:11PM 41.5720 34.8006 304° West  Level Estimated
08:11PM 42.4460 34.6820 304° West 429 494 38,000  Level FlightAware
08:12PM 41.6366 34.6718 304° West  Level Estimated
08:12PM 42.5040 34.5800 308° West 428 493 38,000  Level FlightAware
08:12PM 42.5590 34.4830 308° West 427 491 38,000  Level FlightAware
08:13PM 42.6050 34.4010 307° West 426 490 38,000  Level FlightAware
08:14PM 42.6600 34.3030 307° West 425 489 38,000  Level FlightAware
08:14PM 42.7010 34.2300 307° West 426 490 38,000  Level FlightAware
08:14PM 42.7100 34.2150 309° West 426 490 38,000  Level FlightAware
08:15PM 42.7810 34.0770 305° West 418 481 38,000  Level FlightAware
08:16PM 42.8120 33.9840 294° West 411 473 38,000  Level FlightAware
08:17PM 42.8420 33.8890 293° West 412 474 38,000  Level FlightAware
08:18PM 42.8760 33.7800 293° West 413 475 38,000  Level FlightAware
08:18PM 42.9040 33.6850 292° West 412 474 38,000  Level FlightAware
08:19PM 42.9380 33.5750 293° West 411 473 38,000  Level FlightAware
08:20PM 42.9630 33.4930 293° West 410 472 38,000  Level FlightAware
08:20PM 42.9950 33.3870 292° West 410 472 38,000  Level FlightAware
08:21PM 43.0360 33.2820 298° West 420 483 38,000  Level FlightAware
08:22PM 43.0780 33.1920 303° West 418 481 38,000  Level FlightAware
08:22PM 43.1150 33.1130 303° West 417 480 38,000  Level FlightAware
08:23PM 43.1650 33.0040 302° West 418 481 38,000  Level FlightAware
08:24PM 43.2060 32.9140 302° West 419 482 38,000  Level FlightAware
08:25PM 43.2530 32.8120 302° West 420 483 38,000  Level FlightAware
08:25PM 43.2950 32.7220 303° West 420 483 38,000  Level FlightAware
08:26PM 43.3450 32.6110 302° West 418 481 38,000  Level FlightAware
08:27PM 43.3870 32.5180 302° West 419 482 38,000  Level FlightAware
08:27PM 43.4280 32.4280 302° West 419 482 38,000  Level FlightAware
08:28PM 43.4680 32.3390 302° West 417 480 38,000  Level FlightAware
08:29PM 43.5090 32.2480 302° West 414 476 38,000  Level FlightAware
08:29PM 43.5480 32.1600 301° West 413 475 38,000  Level FlightAware
08:30PM 43.5890 32.0690 302° West 413 475 38,000  Level FlightAware
08:31PM 43.6320 31.9730 302° West 413 475 38,000  Level FlightAware
08:32PM 43.6780 31.8680 301° West 413 475 38,000  Level FlightAware
08:32PM 43.7180 31.7780 302° West 413 475 38,000  Level FlightAware
08:33PM 43.7680 31.6640 301° West 412 474 38,000  Level FlightAware
08:34PM 43.8070 31.5770 302° West 411 473 38,000  Level FlightAware
08:34PM 43.8460 31.4880 301° West 410 472 38,000  Level FlightAware
08:35PM 43.8860 31.3950 301° West 410 472 38,000  Level FlightAware
08:36PM 43.9250 31.3050 301° West 411 473 38,000  Level FlightAware
08:36PM 43.9640 31.2150 301° West 412 474 38,000  Level FlightAware
08:37PM 44.0030 31.1260 301° West 414 476 38,000  Level FlightAware
08:38PM 44.0470 31.0240 301° West 416 479 38,000  Level FlightAware
08:39PM 44.0920 30.9190 301° West 417 480 38,000  Level FlightAware
08:39PM 44.1310 30.8270 301° West 417 480 38,000  Level FlightAware
08:40PM 44.1660 30.7460 301° West 417 480 38,000  Level FlightAware
08:41PM 44.2150 30.6310 301° West 415 478 38,000  Level FlightAware
08:41PM 44.2480 30.5540 301° West 416 479 38,000  Level FlightAware
08:42PM 44.2920 30.4490 300° West 413 475 38,000  Level FlightAware
08:43PM 44.3560 30.3160 304° West 420 483 38,000  Level FlightAware
08:44PM 44.4020 30.2280 306° West 419 482 38,000  Level FlightAware
08:44PM 44.4470 30.1360 304° West 421 484 38,000  Level FlightAware
08:45PM 44.4820 30.0670 305° West 421 484 38,000  Level FlightAware
08:46PM 44.5450 29.9400 305° West 418 481 38,000  Level FlightAware
08:47PM 44.5890 29.8500 304° West 417 480 38,000  Level FlightAware
08:47PM 44.6400 29.7460 305° West 419 482 38,000  Level FlightAware
08:48PM 44.7070 29.6090 305° West 418 481 38,000  Level FlightAware
08:49PM 44.7440 29.5330 304° West 417 480 38,000  Level FlightAware
08:50PM 44.7880 29.4420 304° West 419 482 38,000  Level FlightAware
08:50PM 44.8300 29.3550 304° West 421 484 38,000  Level FlightAware
08:51PM 44.8760 29.2590 304° West 420 483 38,000  Level FlightAware
08:52PM 44.9250 29.1580 304° West 420 483 38,000  Level FlightAware
08:52PM 44.9680 29.0690 304° West 421 484 38,000  Level FlightAware
08:53PM 45.0170 28.9670 304° West 422 486 38,000  Level FlightAware
08:54PM 45.0550 28.8860 304° West 420 483 38,000  Level FlightAware
08:54PM 45.0960 28.8000 304° West 419 482 38,000  Level FlightAware
08:55PM 45.1420 28.7030 304° West 418 481 38,000  Level FlightAware
08:56PM 45.1860 28.6110 304° West 419 482 38,000  Level FlightAware
08:56PM 45.2220 28.5340 304° West 420 483 38,000  Level FlightAware
08:57PM 45.2700 28.4310 304° West 422 486 38,000  Level FlightAware
08:58PM 45.3130 28.3390 304° West 422 486 38,000  Level FlightAware
08:58PM 45.3580 28.2420 303° West 421 484 38,000  Level FlightAware
08:59PM 45.4020 28.1480 304° West 423 487 38,000  Level FlightAware
09:00PM 45.4450 28.0540 303° West 424 488 38,000  Level FlightAware
09:00PM 45.4860 27.9670 304° West 425 489 38,000  Level FlightAware
09:01PM 45.5350 27.8590 303° West 426 490 38,000  Level FlightAware
09:02PM 45.5720 27.7780 303° West 427 491 38,000  Level FlightAware
09:02PM 45.6290 27.6550 304° West 428 493 38,000  Level FlightAware
09:03PM 45.6730 27.5580 303° West 428 493 38,000  Level FlightAware
09:04PM 45.7160 27.4630 303° West 427 491 38,000  Level FlightAware
09:05PM 45.7610 27.3630 303° West 426 490 38,000  Level FlightAware
09:05PM 45.8050 27.2660 303° West 427 491 38,000  Level FlightAware
09:06PM 45.8450 27.1770 303° West 429 494 38,000  Level FlightAware
09:07PM 45.8950 27.0650 303° West 430 495 38,000  Level FlightAware
09:07PM 45.9420 26.9590 303° West 431 496 38,000  Level FlightAware
09:08PM 45.9830 26.8680 303° West 433 498 38,000  Level FlightAware
09:09PM 46.0280 26.7650 302° West 436 502 38,000  Level FlightAware
09:09PM 46.0760 26.6570 303° West 434 499 38,000  Level FlightAware
09:10PM 46.1140 26.5690 302° West 433 498 38,000  Level FlightAware
09:11PM 46.1770 26.4250 302° West 433 498 38,000  Level FlightAware
09:12PM 46.2180 26.3310 302° West 434 499 38,000  Level FlightAware
09:12PM 46.2560 26.2440 302° West 434 499 38,000  Level FlightAware
09:13PM 46.2980 26.1460 302° West 435 501 38,000  Level FlightAware
09:14PM 46.3410 26.0460 302° West 437 503 38,000  Level FlightAware
09:14PM 46.3850 25.9440 302° West 440 506 38,000  Level FlightAware
09:15PM 46.4310 25.8380 302° West 439 505 38,000  Level FlightAware
09:16PM 46.4850 25.7110 302° West 440 506 38,000  Level FlightAware
09:16PM 46.5270 25.6120 302° West 441 507 38,000  Level FlightAware
09:17PM 46.5660 25.5190 301° West 439 505 38,000  Level FlightAware
09:17PM 46.5890 25.4640 301° West 439 505 38,000  Level FlightAware
09:18PM 46.6340 25.3560 301° West 439 505 38,000  Level FlightAware
09:19PM 46.6850 25.2350 302° West 442 509 38,000  Level FlightAware
09:20PM 46.7300 25.1280 302° West 443 510 38,000  Level FlightAware
09:20PM 46.7790 25.0100 301° West 445 512 38,000  Level FlightAware
09:21PM 46.8170 24.9180 301° West 448 516 38,000  Level FlightAware
09:22PM 46.8530 24.8300 301° West 449 517 38,000  Level FlightAware
09:22PM 46.9010 24.7150 301° West 449 517 38,000  Level FlightAware
09:23PM 46.9450 24.6070 301° West 451 519 38,000  Level FlightAware
09:24PM 46.9910 24.4920 300° West 453 521 38,000  Level FlightAware
09:25PM 47.0460 24.3580 301° West 452 520 38,000  Level FlightAware
09:25PM 47.0860 24.2600 301° West 451 519 38,000  Level FlightAware
09:26PM 47.1310 24.1480 301° West 449 517 38,000  Level FlightAware
09:27PM 47.1730 24.0440 301° West 447 514 38,000  Level FlightAware
09:27PM 47.2190 23.9260 300° West 447 514 38,000  Level FlightAware
09:28PM 47.2660 23.8080 300° West 448 516 38,000  Level FlightAware
09:29PM 47.3070 23.7060 301° West 449 517 38,000  Level FlightAware
09:29PM 47.3480 23.6010 300° West 447 514 38,000  Level FlightAware
09:30PM 47.3950 23.4810 300° West 445 512 38,000  Level FlightAware
09:31PM 47.4370 23.3750 300° West 445 512 38,000  Level FlightAware
09:31PM 47.4780 23.2680 300° West 448 516 38,000  Level FlightAware
09:32PM 47.5210 23.1580 300° West 450 518 38,000  Level FlightAware
09:33PM 47.5680 23.0360 300° West 452 520 38,000  Level FlightAware
09:34PM 47.6090 22.9280 299° West 451 519 38,000  Level FlightAware
09:34PM 47.6510 22.8200 300° West 451 519 38,000  Level FlightAware
09:35PM 47.6960 22.7000 299° West 450 518 38,000  Level FlightAware
09:36PM 47.7400 22.5870 300° West 448 516 38,000  Level FlightAware
09:36PM 47.7830 22.4690 299° West 447 514 38,000  Level FlightAware
09:37PM 47.8240 22.3570 299° West 448 516 38,000  Level FlightAware
09:38PM 47.8650 22.2470 299° West 447 514 38,000  Level FlightAware
09:39PM 47.9080 22.1290 299° West 447 514 38,000  Level FlightAware
09:39PM 47.9490 22.0170 299° West 447 514 38,000  Level FlightAware
09:40PM 47.9880 21.9090 298° West 447 514 38,000  Level FlightAware
09:41PM 48.0290 21.7940 298° West 446 513 38,000  Level FlightAware
09:41PM 48.0700 21.6790 298° West 446 513 38,000  Level FlightAware
09:42PM 48.1130 21.5590 298° West 448 516 38,000  Level FlightAware
09:43PM 48.1520 21.4510 298° West 447 514 38,000  Level FlightAware
09:43PM 48.1910 21.3390 298° West 446 513 38,000  Level FlightAware
09:44PM 48.2340 21.2180 298° West 446 513 38,000  Level FlightAware
09:45PM 48.2720 21.1060 297° West 445 512 38,000  Level FlightAware
09:46PM 48.3050 20.9790 291° West 444 511 38,000  Level FlightAware
09:46PM 48.3350 20.8670 292° West 446 513 38,000  Level FlightAware
09:47PM 48.3630 20.7620 292° West 450 518 38,000  Level FlightAware
09:47PM 48.3930 20.6450 291° West 451 519 38,000  Level FlightAware
09:48PM 48.4260 20.5190 292° West 450 518 38,000  Level FlightAware
09:49PM 48.4570 20.4020 292° West 450 518 38,000  Level FlightAware
09:50PM 48.4860 20.2890 291° West 450 518 38,000  Level FlightAware
09:50PM 48.5160 20.1720 291° West 450 518 38,000  Level FlightAware
09:51PM 48.5420 20.0710 291° West 449 517 38,000  Level FlightAware
09:52PM 48.5780 19.9270 291° West 447 514 38,000  Level FlightAware
09:52PM 48.6080 19.8110 291° West 445 512 38,000  Level FlightAware
09:53PM 48.6350 19.7000 290° West 445 512 38,000  Level FlightAware
09:54PM 48.6690 19.5660 291° West 446 513 38,000  Level FlightAware
09:54PM 48.6930 19.4670 290° West 446 513 38,000  Level FlightAware
09:55PM 48.7230 19.3490 291° West 445 512 38,000  Level FlightAware
09:56PM 48.7540 19.2210 290° West 444 511 38,000  Level FlightAware
09:56PM 48.7800 19.1150 290° West 444 511 38,000  Level FlightAware
09:57PM 48.8090 18.9980 291° West 446 513 38,000  Level FlightAware
09:58PM 48.8370 18.8800 290° West 448 516 38,000  Level FlightAware
09:58PM 48.8640 18.7670 290° West 448 516 38,000  Level FlightAware
09:59PM 48.8930 18.6460 290° West 445 512 38,000  Level FlightAware
10:01PM 48.9520 18.3990 290° West 445 512 38,000  Level FlightAware
10:01PM 48.9910 18.2310 290° West 446 513 38,000  Level FlightAware
10:02PM 49.0190 18.1140 290° West 447 514 38,000  Level FlightAware
10:03PM 49.0490 17.9820 289° West 447 514 38,000  Level FlightAware
10:03PM 49.0770 17.8640 290° West 447 514 38,000  Level FlightAware
10:04PM 49.1070 17.7330 289° West 445 512 38,000  Level FlightAware
10:05PM 49.1330 17.6190 289° West 446 513 38,000  Level FlightAware
10:05PM 49.1640 17.4840 289° West 447 514 38,000  Level FlightAware
10:06PM 49.1840 17.3940 289° West 447 514 38,000  Level FlightAware
10:07PM 49.2120 17.2670 289° West 444 511 38,000  Level FlightAware
10:07PM 49.2420 17.1340 289° West 443 510 38,000  Level FlightAware
10:08PM 49.2680 17.0150 289° West 444 511 38,000  Level FlightAware
10:09PM 49.2950 16.8930 289° West 444 511 38,000  Level FlightAware
10:10PM 49.3240 16.7620 289° West 443 510 38,000  Level FlightAware
10:10PM 49.3520 16.6370 289° West 443 510 38,000  Level FlightAware
10:11PM 49.3760 16.5230 288° West 444 511 38,000  Level FlightAware
10:11PM 49.4000 16.4120 288° West 447 514 38,000  Level FlightAware
10:12PM 49.4290 16.2790 289° West 449 517 38,000  Level FlightAware
10:13PM 49.4540 16.1580 288° West 449 517 38,000  Level FlightAware
10:13PM 49.4780 16.0480 289° West 448 516 38,000  Level FlightAware
10:14PM 49.5060 15.9150 288° West 446 513 38,000  Level FlightAware
10:15PM 49.5350 15.7730 288° West 447 514 38,000  Level FlightAware
10:16PM 49.5630 15.6410 288° West 448 516 38,000  Level FlightAware
10:16PM 49.5910 15.5060 288° West 450 518 38,000  Level FlightAware
10:17PM 49.6100 15.4090 287° West 452 520 38,000  Level FlightAware
10:18PM 49.6380 15.2740 288° West 452 520 38,000  Level FlightAware
10:18PM 49.6620 15.1540 287° West 452 520 38,000  Level FlightAware
10:19PM 49.6900 15.0180 288° West 450 518 38,000  Level FlightAware
10:20PM 49.7240 14.8450 287° West 448 516 38,000  Level FlightAware
10:21PM 49.7490 14.7200 287° West 446 513 38,000  Level FlightAware
10:21PM 49.7740 14.5910 287° West 441 507 38,000  Level FlightAware
10:22PM 49.7960 14.4800 287° West 440 506 38,000  Level FlightAware
10:23PM 49.8180 14.3680 287° West 440 506 38,000  Level FlightAware
10:23PM 49.8400 14.2520 286° West 440 506 38,000  Level FlightAware
10:24PM 49.8640 14.1300 287° West 442 509 38,000  Level FlightAware
10:25PM 49.8870 14.0060 286° West 443 510 38,000  Level FlightAware
10:25PM 49.9130 13.8710 287° West 443 510 38,000  Level FlightAware
10:26PM 49.9360 13.7460 286° West 442 509 38,000  Level FlightAware
10:27PM 49.9610 13.6140 286° West 443 510 38,000  Level FlightAware
10:28PM 49.9840 13.4920 286° West 445 512 38,000 -480 Level FlightAware
10:28PM 50.0060 13.3720 286° West 445 512 37,400 -1,380 Descending FlightAware
10:29PM 50.0290 13.2480 286° West 432 497 36,200 -1,680 Descending FlightAware
10:29PM 50.0480 13.1420 286° West 426 490 35,300 -1,560 Descending FlightAware
10:30PM 50.0730 13.0060 286° West 428 493 34,100 -1,560 Descending FlightAware
10:31PM 50.0920 12.8980 285° West 439 505 33,200 -1,500 Descending FlightAware
10:31PM 50.1140 12.7750 286° West 445 512 32,200 -1,500 Descending FlightAware
10:32PM 50.1380 12.6380 285° West 450 518 31,100 -1,500 Descending FlightAware
10:33PM 50.1680 12.4700 286° West 444 511 29,800 -1,320 Descending FlightAware
10:34PM 50.1920 12.3320 285° West 439 505 29,000 -660 Descending FlightAware
10:34PM 50.2160 12.2290 290° West 441 507 29,000  Level FlightAware
10:35PM 50.2480 12.0880 290° West 442 509 29,000  Level FlightAware
10:36PM 50.2740 11.9760 290° West 442 509 29,000  Level FlightAware
10:37PM 50.3000 11.8610 290° West 442 509 29,000 -180 Level FlightAware
10:37PM 50.3310 11.7260 290° West 444 511 28,800 -840 Descending FlightAware
10:38PM 50.3570 11.6090 289° West 435 501 27,900 -1,440 Descending FlightAware
10:38PM 50.3810 11.5030 290° West 430 495 27,000 -1,500 Descending FlightAware
10:39PM 50.4100 11.3740 289° West 423 487 25,900 -1,500 Descending FlightAware
10:40PM 50.4340 11.2670 289° West 416 479 25,000 -1,500 Descending FlightAware
10:41PM 50.4610 11.1460 289° West 415 478 23,900 -1,620 Descending FlightAware
10:41PM 50.4870 11.0260 289° West 408 470 22,800 -1,560 Descending FlightAware
10:42PM 50.5210 10.8700 289° West 399 459 21,400 -1,500 Descending FlightAware
10:43PM 50.5450 10.7610 289° West 396 456 20,400 -1,140 Descending FlightAware
10:43PM 50.5670 10.6670 290° West 392 451 20,000 -360 Descending FlightAware
10:44PM 50.5920 10.5590 290° West 393 452 20,000  Level FlightAware
10:45PM 50.6170 10.4460 289° West 347 399 20,000  Level FlightAware
10:45PM 50.6340 10.3630 288° West 342 394 20,000  Level FlightAware
10:46PM 50.6300 10.2880 265° West 345 397 20,000  Level FlightAware
10:47PM 50.6070 10.1950 249° West 344 396 20,000 -360 Level FlightAware
10:47PM 50.5840 10.0900 251° West 343 395 19,500 -840 Descending FlightAware
10:48PM 50.5670 10.0060 252° West 336 387 18,900 -1,020 Descending FlightAware
10:49PM 50.5440 9.9010 251° West 335 386 18,200 -1,080 Descending FlightAware
10:49PM 50.5240 9.8090 251° West 328 377 17,400 -1,380 Descending FlightAware
10:50PM 50.5020 9.7070 251° West 328 377 16,300 -1,380 Descending FlightAware
10:51PM 50.4830 9.6170 252° West 325 374 15,500 -1,500 Descending FlightAware
10:52PM 50.4620 9.5140 252° West 331 381 14,200 -1,680 Descending FlightAware
10:52PM 50.4450 9.4210 254° West 329 379 13,200 -1,260 Descending FlightAware
10:53PM 50.4250 9.3140 254° West 318 366 12,400 -1,020 Descending FlightAware
10:53PM 50.4110 9.2550 250° West 316 364 12,000 -900 Descending FlightAware
10:54PM 50.3980 9.2350 224° Southwest 315 362 11,800 -1,020 Descending FlightAware
10:54PM 50.3440 9.1830 212° Southwest 308 354 11,100 -600 Descending FlightAware
10:55PM 50.2990 9.1390 212° Southwest 278 320 11,000 -120 Descending FlightAware
10:56PM 50.2710 9.1050 218° Southwest 275 316 11,000  Level FlightAware
10:56PM 50.2640 9.0810 245° Southwest 277 319 11,000  Level FlightAware
10:56PM 50.2450 9.0010 250° West 277 319 11,000  Level FlightAware
10:57PM 50.2300 8.9330 251° West 276 318 11,000  Level FlightAware
10:58PM 50.2110 8.8540 249° West 278 320 11,000  Level FlightAware
10:58PM 50.1930 8.7790 249° West 279 321 11,000  Level FlightAware
10:59PM 50.1770 8.7110 250° West 278 320 11,000  Level FlightAware
11:00PM 50.1580 8.6310 250° West 278 320 11,000  Level FlightAware
11:00PM 50.1390 8.5510 250° West 277 319 11,000 -120 Level FlightAware
11:01PM 50.1210 8.4750 250° West 277 319 10,900 -600 Descending FlightAware
11:02PM 50.1010 8.3930 249° West 275 316 10,200 -1,020 Descending FlightAware
11:02PM 50.0910 8.3490 251° West 275 316 9,800 -1,020 Descending FlightAware
11:03PM 50.0770 8.2940 248° West 274 315 9,300 -960 Descending FlightAware
11:03PM 50.0640 8.2410 249° West 268 308 8,900 -1,020 Descending FlightAware
11:04PM 50.0530 8.1940 250° West 268 308 8,400 -1,020 Descending FlightAware
11:04PM 50.0410 8.1440 250° West 263 303 8,000 -1,020 Descending FlightAware
11:05PM 50.0290 8.0940 250° West 262 302 7,500 -1,140 Descending FlightAware
11:05PM 50.0210 8.0670 245° Southwest 257 296 7,200 -1,740 Descending FlightAware
11:05PM 50.0110 8.0490 229° Southwest 254 292 6,700 -2,220 Descending FlightAware
11:05PM 49.9940 8.0400 199° South 247 284 6,100 -1,800 Descending FlightAware
11:06PM 49.9710 8.0540 159° South 229 264 5,500 -1,500 Descending FlightAware
11:06PM 49.9640 8.0740 119° Southeast 228 262 5,200 -960 Descending FlightAware
11:07PM 49.9580 8.1220 101° East 221 254 4,800 -780 Descending FlightAware
11:07PM 49.9580 8.1610 90° East 207 238 4,500 -900 Descending FlightAware
11:07PM 49.9650 8.2000 74° East 190 219 4,000 -900 Descending FlightAware
11:08PM 49.9730 8.2320 69° East 178 205 3,700 -840 Descending FlightAware
11:08PM 49.9810 8.2620 67° East 174 200 3,300 -1,080 Descending FlightAware
11:09PM 49.9860 8.2850 71° East 171 197 2,900 -960 Descending FlightAware
11:09PM 49.9940 8.3200 70° East 166 191 2,500 -900 Descending FlightAware
11:10PM 50.0020 8.3510 68° East 163 188 2,000 -960 Descending FlightAware
11:10PM 50.0110 8.3890 70° East 143 165 1,500 -780 Descending FlightAware
11:11PM 50.0200 8.4250 69° East 123 142 1,000 -720 Descending FlightAware
11:11PM 50.0260 8.4530 72° East 126 145 600 -480 Descending FlightAware
11:12PM 50.0330 8.4830 70° East 125 144 500 -180 Descending FlightAware
11:15PM 50.0264 8.5431 100° East  Level Estimated
11:15PM 50.0440 8.5420 100° East 19 22  Level FlightAware
11:17PM 50.0410 8.5530 178° South 14 16  Level FlightAware
11:18PM 50.0264 8.5431 178° South  Level Estimated
11:18PM 50.0420 8.5560 63° Northeast 17 20  Level FlightAware
11:18PM 50.0420 8.5580 90° East 17 20  Level FlightAware
11:19PM 50.0430 8.5610 63° Northeast 18 21  Level FlightAware
11:19PM 50.0440 8.5640 63° Northeast 19 22  Level FlightAware
11:20PM 50.0450 8.5690 73° East 19 22  Level FlightAware
11:20PM 50.0460 8.5730 69° East 19 22  Level FlightAware
11:22PM 50.0480 8.5780 58° Northeast 7 8  Level FlightAware
11:24PM 50.0264 8.5431 226° Southwest  Level Estimated